createdAt,value
2017-12-30T00:01:44.629Z,8.52
2017-12-30T00:04:11.351Z,8.23
2017-12-30T00:06:38.109Z,10.10
2017-12-30T00:09:04.830Z,9.35
2017-12-30T00:11:31.544Z,10.43
2017-12-30T00:13:58.257Z,9.77
2017-12-30T00:16:24.999Z,8.85
2017-12-30T00:18:51.708Z,8.32
2017-12-30T00:21:18.455Z,8.00
2017-12-30T00:23:45.180Z,7.10
2017-12-30T00:26:11.911Z,7.85
2017-12-30T00:28:38.629Z,8.00
2017-12-30T00:31:05.348Z,9.25
2017-12-30T00:33:32.067Z,8.13
2017-12-30T00:35:58.809Z,8.55
2017-12-30T00:38:25.528Z,9.38
2017-12-30T00:40:52.232Z,7.85
2017-12-30T00:43:18.949Z,9.00
2017-12-30T00:45:45.662Z,8.25
2017-12-30T00:48:12.401Z,8.30
2017-12-30T00:50:39.135Z,8.70
2017-12-30T00:53:05.885Z,8.95
2017-12-30T00:55:32.586Z,8.40
2017-12-30T00:57:59.316Z,7.05
2017-12-30T01:00:26.049Z,9.48
2017-12-30T01:02:52.764Z,10.30
2017-12-30T01:05:19.481Z,8.85
2017-12-30T01:07:46.219Z,7.90
2017-12-30T01:10:12.927Z,9.75
2017-12-30T01:12:39.650Z,8.85
2017-12-30T01:15:06.401Z,7.62
2017-12-30T01:17:33.113Z,8.25
2017-12-30T01:19:59.829Z,6.60
2017-12-30T01:22:26.571Z,7.37
2017-12-30T01:24:53.297Z,8.52
2017-12-30T01:27:20.016Z,8.85
2017-12-30T01:29:46.750Z,8.40
2017-12-30T01:32:13.460Z,8.75
2017-12-30T01:34:40.177Z,8.98
2017-12-30T01:37:06.922Z,8.20
2017-12-30T01:39:33.641Z,8.18
2017-12-30T01:42:00.351Z,8.50
2017-12-30T01:44:27.066Z,8.52
2017-12-30T01:46:53.791Z,7.85
2017-12-30T01:49:20.503Z,8.18
2017-12-30T01:51:47.236Z,8.40
2017-12-30T01:54:13.958Z,7.60
2017-12-30T01:56:40.708Z,8.07
2017-12-30T01:59:07.442Z,8.10
2017-12-30T02:01:34.267Z,7.20
2017-12-30T02:04:00.985Z,7.95
2017-12-30T02:06:27.716Z,8.05
2017-12-30T02:08:54.437Z,7.20
2017-12-30T02:11:21.171Z,6.93
2017-12-30T02:13:47.904Z,7.35
2017-12-30T02:16:14.627Z,7.85
2017-12-30T02:18:41.349Z,7.55
2017-12-30T02:21:08.086Z,7.12
2017-12-30T02:23:34.799Z,8.15
2017-12-30T02:26:01.517Z,6.97
2017-12-30T02:28:28.241Z,7.05
2017-12-30T02:30:54.975Z,7.47
2017-12-30T02:33:21.759Z,7.32
2017-12-30T02:35:48.494Z,6.47
2017-12-30T02:38:15.214Z,7.10
2017-12-30T02:40:41.925Z,7.12
2017-12-30T02:43:08.637Z,6.62
2017-12-30T02:45:35.376Z,6.50
2017-12-30T02:48:02.114Z,7.03
2017-12-30T02:50:28.863Z,7.40
2017-12-30T02:52:55.582Z,6.30
2017-12-30T02:55:22.345Z,6.22
2017-12-30T02:57:49.068Z,5.10
2017-12-30T03:00:15.804Z,6.12
2017-12-30T03:02:42.517Z,5.20
2017-12-30T03:05:09.250Z,6.22
2017-12-30T03:07:35.961Z,4.97
2017-12-30T03:10:02.687Z,5.15
2017-12-30T03:12:29.409Z,4.85
2017-12-30T03:14:56.116Z,5.35
2017-12-30T03:17:22.826Z,5.07
2017-12-30T03:19:49.562Z,5.40
2017-12-30T03:22:16.273Z,5.37
2017-12-30T03:24:42.981Z,5.18
2017-12-30T03:27:09.760Z,6.00
2017-12-30T03:29:36.465Z,5.90
2017-12-30T03:32:03.170Z,8.63
2017-12-30T03:34:29.976Z,8.50
2017-12-30T03:36:56.702Z,7.30
2017-12-30T03:39:23.419Z,8.98
2017-12-30T03:41:50.146Z,7.55
2017-12-30T03:44:16.867Z,6.70
2017-12-30T03:46:43.580Z,6.47
2017-12-30T03:49:10.324Z,7.12
2017-12-30T03:51:37.054Z,6.60
2017-12-30T03:54:03.769Z,7.10
2017-12-30T03:56:30.502Z,7.28
2017-12-30T03:58:57.241Z,7.50
2017-12-30T04:01:23.963Z,7.87
2017-12-30T04:03:50.708Z,8.02
2017-12-30T04:06:17.434Z,6.72
2017-12-30T04:08:44.148Z,5.70
2017-12-30T04:11:10.882Z,5.35
2017-12-30T04:13:37.596Z,5.07
2017-12-30T04:16:04.342Z,4.47
2017-12-30T04:18:31.082Z,4.75
2017-12-30T04:20:57.787Z,5.10
2017-12-30T04:23:24.495Z,5.30
2017-12-30T04:25:51.233Z,6.32
2017-12-30T04:28:17.954Z,6.20
2017-12-30T04:30:44.669Z,6.57
2017-12-30T04:33:11.407Z,5.97
2017-12-30T04:35:39.031Z,6.65
2017-12-30T04:38:05.737Z,6.43
2017-12-30T04:40:32.457Z,6.30
2017-12-30T04:42:59.157Z,6.07
2017-12-30T04:45:25.895Z,6.00
2017-12-30T04:47:52.602Z,5.37
2017-12-30T04:50:19.316Z,6.37
2017-12-30T04:52:46.015Z,5.12
2017-12-30T04:55:12.748Z,5.25
2017-12-30T04:57:39.463Z,5.07
2017-12-30T05:00:06.227Z,4.97
2017-12-30T05:02:32.977Z,5.18
2017-12-30T05:04:59.681Z,5.00
2017-12-30T05:07:26.413Z,4.40
2017-12-30T05:09:53.139Z,5.12
2017-12-30T05:12:19.847Z,4.80
2017-12-30T05:14:46.579Z,4.60
2017-12-30T05:17:13.316Z,5.40
2017-12-30T05:19:40.031Z,4.32
2017-12-30T05:22:06.810Z,5.12
2017-12-30T05:24:33.540Z,4.82
2017-12-30T05:27:00.274Z,4.57
2017-12-30T05:29:26.987Z,4.45
2017-12-30T05:31:53.708Z,5.75
2017-12-30T05:34:20.452Z,5.87
2017-12-30T05:36:47.185Z,4.60
2017-12-30T05:39:13.953Z,5.82
2017-12-30T05:41:40.706Z,6.70
2017-12-30T05:44:07.442Z,5.60
2017-12-30T05:46:34.194Z,5.20
2017-12-30T05:49:00.934Z,5.65
2017-12-30T05:51:27.664Z,5.50
2017-12-30T05:53:54.410Z,5.40
2017-12-30T05:56:21.146Z,5.47
2017-12-30T05:58:47.947Z,5.68
2017-12-30T06:01:14.686Z,6.53
2017-12-30T06:03:41.414Z,5.70
2017-12-30T06:06:08.133Z,6.05
2017-12-30T06:08:34.873Z,5.35
2017-12-30T06:11:01.621Z,5.40
2017-12-30T06:13:28.353Z,5.30
2017-12-30T06:15:55.090Z,4.90
2017-12-30T06:18:21.807Z,5.12
2017-12-30T06:20:48.575Z,5.62
2017-12-30T06:23:15.321Z,5.60
2017-12-30T06:25:42.039Z,5.80
2017-12-30T06:28:08.750Z,5.47
2017-12-30T06:30:35.497Z,4.55
2017-12-30T06:33:02.235Z,6.53
2017-12-30T06:35:28.959Z,5.00
2017-12-30T06:37:55.698Z,5.47
2017-12-30T06:40:22.413Z,5.55
2017-12-30T06:42:49.123Z,5.03
2017-12-30T06:45:15.863Z,5.60
2017-12-30T06:47:42.599Z,4.95
2017-12-30T06:50:09.369Z,5.65
2017-12-30T06:52:36.133Z,6.07
2017-12-30T06:55:02.854Z,5.05
2017-12-30T06:57:29.579Z,5.90
2017-12-30T06:59:56.357Z,5.90
2017-12-30T07:02:23.098Z,5.75
2017-12-30T07:04:49.902Z,5.28
2017-12-30T07:07:16.627Z,4.85
2017-12-30T07:09:43.369Z,5.45
2017-12-30T07:12:10.095Z,5.95
2017-12-30T07:14:36.959Z,4.75
2017-12-30T07:17:03.684Z,4.53
2017-12-30T07:19:30.501Z,5.07
2017-12-30T07:21:57.234Z,5.10
2017-12-30T07:24:23.955Z,6.00
2017-12-30T07:26:50.671Z,6.03
2017-12-30T07:29:17.404Z,5.40
2017-12-30T07:31:44.106Z,4.90
2017-12-30T07:34:10.849Z,5.03
2017-12-30T07:36:37.679Z,4.85
2017-12-30T07:39:04.426Z,5.22
2017-12-30T07:41:31.160Z,4.03
2017-12-30T07:43:57.884Z,4.87
2017-12-30T07:46:24.592Z,4.60
2017-12-30T07:48:51.303Z,5.10
2017-12-30T07:51:18.027Z,5.43
2017-12-30T07:53:44.734Z,5.75
2017-12-30T07:56:11.450Z,5.47
2017-12-30T07:58:38.210Z,4.95
2017-12-30T08:01:04.948Z,6.55
2017-12-30T08:03:31.704Z,7.85
2017-12-30T08:05:58.506Z,9.88
2017-12-30T08:08:25.235Z,8.75
2017-12-30T08:10:51.987Z,9.95
2017-12-30T08:13:18.698Z,8.93
2017-12-30T08:15:45.430Z,7.62
2017-12-30T08:18:12.149Z,7.32
2017-12-30T08:20:38.877Z,7.30
2017-12-30T08:23:05.596Z,6.70
2017-12-30T08:25:32.330Z,7.60
2017-12-30T08:27:59.060Z,6.70
2017-12-30T08:30:25.786Z,8.00
2017-12-30T08:32:52.530Z,7.82
2017-12-30T08:35:19.271Z,7.90
2017-12-30T08:37:45.994Z,7.20
2017-12-30T08:40:12.729Z,7.15
2017-12-30T08:42:39.594Z,8.30
2017-12-30T08:45:06.360Z,7.62
2017-12-30T08:47:33.167Z,7.00
2017-12-30T08:49:59.903Z,8.02
2017-12-30T08:52:26.654Z,7.30
2017-12-30T08:54:53.394Z,7.78
2017-12-30T08:57:20.137Z,7.93
2017-12-30T08:59:46.866Z,9.30
2017-12-30T09:02:13.617Z,8.45
2017-12-30T09:04:40.329Z,7.20
2017-12-30T09:07:07.065Z,7.32
2017-12-30T09:09:33.792Z,9.13
2017-12-30T09:12:00.547Z,7.35
2017-12-30T09:14:27.282Z,6.62
2017-12-30T09:16:53.987Z,6.47
2017-12-30T09:19:20.730Z,7.43
2017-12-30T09:21:47.451Z,8.90
2017-12-30T09:24:14.169Z,8.40
2017-12-30T09:26:40.906Z,9.38
2017-12-30T09:29:07.638Z,9.68
2017-12-30T09:31:34.387Z,9.00
2017-12-30T09:34:01.142Z,9.85
2017-12-30T09:36:27.884Z,9.18
2017-12-30T09:38:54.632Z,10.75
2017-12-30T09:41:21.365Z,10.60
2017-12-30T09:43:48.086Z,11.52
2017-12-30T09:46:14.817Z,12.65
2017-12-30T09:48:41.566Z,10.50
2017-12-30T09:51:08.367Z,11.93
2017-12-30T09:53:35.095Z,10.30
2017-12-30T09:56:01.865Z,10.88
2017-12-30T09:58:28.585Z,10.77
2017-12-30T10:00:55.307Z,10.02
2017-12-30T10:03:22.066Z,10.68
2017-12-30T10:05:48.814Z,10.52
2017-12-30T10:08:15.538Z,9.45
2017-12-30T10:10:42.300Z,10.27
2017-12-30T10:13:09.060Z,9.60
2017-12-30T10:15:35.777Z,11.27
2017-12-30T10:18:02.530Z,10.07
2017-12-30T10:20:29.252Z,10.07
2017-12-30T10:22:55.961Z,10.20
2017-12-30T10:25:22.709Z,9.40
2017-12-30T10:27:49.448Z,9.10
2017-12-30T10:30:16.161Z,9.33
2017-12-30T10:32:42.911Z,9.60
2017-12-30T10:35:09.626Z,10.27
2017-12-30T10:37:36.357Z,10.20
2017-12-30T10:40:03.102Z,9.93
2017-12-30T10:42:29.815Z,10.27
2017-12-30T10:44:56.538Z,9.67
2017-12-30T10:47:23.293Z,9.37
2017-12-30T10:49:50.050Z,11.00
2017-12-30T10:52:16.768Z,10.07
2017-12-30T10:54:43.509Z,9.47
2017-12-30T10:57:10.217Z,9.70
2017-12-30T10:59:36.973Z,9.50
2017-12-30T11:02:03.713Z,9.60
2017-12-30T11:04:30.437Z,9.30
2017-12-30T11:06:57.154Z,9.50
2017-12-30T11:09:23.872Z,9.30
2017-12-30T11:11:50.576Z,8.60
2017-12-30T11:14:17.295Z,10.17
2017-12-30T11:16:44.050Z,8.97
2017-12-30T11:19:10.759Z,9.17
2017-12-30T11:21:37.484Z,8.87
2017-12-30T11:24:04.223Z,8.83
2017-12-30T11:26:30.974Z,10.20
2017-12-30T11:28:57.709Z,9.40
2017-12-30T11:31:24.424Z,9.23
2017-12-30T11:33:51.153Z,9.00
2017-12-30T11:36:17.869Z,9.10
2017-12-30T11:38:44.593Z,10.40
2017-12-30T11:41:11.310Z,10.47
2017-12-30T11:43:38.027Z,8.90
2017-12-30T11:46:04.767Z,10.30
2017-12-30T11:48:31.507Z,10.37
2017-12-30T11:50:58.251Z,10.03
2017-12-30T11:53:24.997Z,10.97
2017-12-30T11:55:51.725Z,9.50
2017-12-30T11:58:18.464Z,10.40
2017-12-30T12:00:45.213Z,10.20
2017-12-30T12:03:11.922Z,9.93
2017-12-30T12:05:38.685Z,10.23
2017-12-30T12:08:05.445Z,8.77
2017-12-30T12:10:32.187Z,11.03
2017-12-30T12:12:58.919Z,10.73
2017-12-30T12:15:25.652Z,9.90
2017-12-30T12:17:52.377Z,9.93
2017-12-30T12:20:19.103Z,10.80
2017-12-30T12:22:46.588Z,10.07
2017-12-30T12:25:13.443Z,11.20
2017-12-30T12:27:40.183Z,11.23
2017-12-30T12:30:07.016Z,10.03
2017-12-30T12:32:33.757Z,9.87
2017-12-30T12:35:00.604Z,11.10
2017-12-30T12:37:27.380Z,10.30
2017-12-30T12:39:55.004Z,8.97
2017-12-30T12:42:21.738Z,9.77
2017-12-30T12:44:48.946Z,9.70
2017-12-30T12:47:15.726Z,11.17
2017-12-30T12:49:43.816Z,9.00
2017-12-30T12:52:10.634Z,11.77
2017-12-30T12:54:37.674Z,10.30
2017-12-30T12:57:04.545Z,10.40
2017-12-30T12:59:31.313Z,9.50
2017-12-30T13:02:02.054Z,9.77
2017-12-30T13:04:28.779Z,9.70
2017-12-30T13:06:55.844Z,10.50
2017-12-30T13:09:22.561Z,10.13
2017-12-30T13:11:49.290Z,10.30
2017-12-30T13:14:16.555Z,10.20
2017-12-30T13:16:44.784Z,9.20
2017-12-30T13:19:11.530Z,9.77
2017-12-30T13:21:39.254Z,8.30
2017-12-30T13:24:06.799Z,7.40
2017-12-30T13:26:33.995Z,7.37
2017-12-30T13:29:00.771Z,8.53
2017-12-30T13:31:27.717Z,8.80
2017-12-30T13:33:54.768Z,7.60
2017-12-30T13:36:21.569Z,7.73
2017-12-30T13:38:48.322Z,8.20
2017-12-30T13:41:15.405Z,8.00
2017-12-30T13:43:44.294Z,7.80
2017-12-30T13:46:11.075Z,7.07
2017-12-30T13:48:38.533Z,7.83
2017-12-30T13:51:05.444Z,7.47
2017-12-30T13:53:32.165Z,7.77
2017-12-30T13:55:58.911Z,9.40
2017-12-30T13:58:25.662Z,7.53
2017-12-30T14:00:52.411Z,8.80
2017-12-30T14:03:19.135Z,7.57
2017-12-30T14:05:45.878Z,7.97
2017-12-30T14:08:12.664Z,8.00
2017-12-30T14:10:39.387Z,9.27
2017-12-30T14:13:06.130Z,7.83
2017-12-30T14:15:32.864Z,7.87
2017-12-30T14:17:59.685Z,8.20
2017-12-30T14:20:26.423Z,8.40
2017-12-30T14:22:53.170Z,8.50
2017-12-30T14:25:19.888Z,9.30
2017-12-30T14:27:46.622Z,8.73
2017-12-30T14:30:13.351Z,9.53
2017-12-30T14:32:40.067Z,10.67
2017-12-30T14:35:06.836Z,10.97
2017-12-30T14:37:33.549Z,9.57
2017-12-30T14:40:00.287Z,8.60
2017-12-30T14:42:27.033Z,8.97
2017-12-30T14:44:53.848Z,13.23
2017-12-30T14:47:20.574Z,13.30
2017-12-30T14:49:47.330Z,10.00
2017-12-30T14:52:14.044Z,9.63
2017-12-30T14:54:40.757Z,8.03
2017-12-30T14:57:07.493Z,8.90
2017-12-30T14:59:34.214Z,9.33
2017-12-30T15:02:00.932Z,9.37
2017-12-30T15:04:27.672Z,9.40
2017-12-30T15:06:54.415Z,9.37
2017-12-30T15:09:21.136Z,8.13
2017-12-30T15:11:47.865Z,8.33
2017-12-30T15:14:14.596Z,9.27
2017-12-30T15:16:41.342Z,8.90
2017-12-30T15:19:08.077Z,10.30
2017-12-30T15:21:34.814Z,11.70
2017-12-30T15:24:01.534Z,9.80
2017-12-30T15:26:28.262Z,9.60
2017-12-30T15:28:55.026Z,9.07
2017-12-30T15:31:21.715Z,9.37
2017-12-30T15:33:48.440Z,9.20
2017-12-30T15:36:15.165Z,8.67
2017-12-30T15:38:41.921Z,9.53
2017-12-30T15:41:08.648Z,8.60
2017-12-30T15:43:35.350Z,8.10
2017-12-30T15:46:02.086Z,8.57
2017-12-30T15:48:28.824Z,8.43
2017-12-30T15:50:55.537Z,8.37
2017-12-30T15:53:22.272Z,7.83
2017-12-30T15:55:49.002Z,7.90
2017-12-30T15:58:15.810Z,9.10
2017-12-30T16:00:42.537Z,8.43
2017-12-30T16:03:09.338Z,9.03
2017-12-30T16:05:36.072Z,10.07
2017-12-30T16:08:02.801Z,9.30
2017-12-30T16:10:29.528Z,8.77
2017-12-30T16:12:56.258Z,8.23
2017-12-30T16:15:22.981Z,6.67
2017-12-30T16:17:49.734Z,6.37
2017-12-30T16:20:16.455Z,6.70
2017-12-30T16:22:43.182Z,7.33
2017-12-30T16:25:09.957Z,7.00
2017-12-30T16:27:36.705Z,5.60
2017-12-30T16:30:03.504Z,3.10
2017-12-30T16:32:30.230Z,5.33
2017-12-30T16:34:56.960Z,7.20
2017-12-30T16:37:23.692Z,9.00
2017-12-30T16:39:50.448Z,9.47
2017-12-30T16:42:17.181Z,10.35
2017-12-30T16:44:43.926Z,9.57
2017-12-30T16:47:10.668Z,8.97
2017-12-30T16:49:37.414Z,11.00
2017-12-30T16:52:04.142Z,11.77
2017-12-30T16:54:30.887Z,10.80
2017-12-30T16:56:57.612Z,11.23
2017-12-30T16:59:24.346Z,10.57
2017-12-30T17:01:51.095Z,10.17
2017-12-30T17:04:17.829Z,8.30
2017-12-30T17:06:44.576Z,9.17
2017-12-30T17:09:11.385Z,8.30
2017-12-30T17:11:38.137Z,9.90
2017-12-30T17:14:04.862Z,9.77
2017-12-30T17:16:31.623Z,10.60
2017-12-30T17:18:58.346Z,9.80
2017-12-30T17:21:25.101Z,8.07
2017-12-30T17:23:51.841Z,9.88
2017-12-30T17:26:18.580Z,10.20
2017-12-30T17:28:45.330Z,9.17
2017-12-30T17:31:12.079Z,9.15
2017-12-30T17:33:38.810Z,8.67
2017-12-30T17:36:05.561Z,10.32
2017-12-30T17:38:32.412Z,8.73
2017-12-30T17:40:59.156Z,9.50
2017-12-30T17:43:25.905Z,8.90
2017-12-30T17:45:52.630Z,9.50
2017-12-30T17:48:19.399Z,9.90
2017-12-30T17:50:46.127Z,11.50
2017-12-30T17:53:12.868Z,8.43
2017-12-30T17:55:39.615Z,9.63
2017-12-30T17:58:06.346Z,8.60
2017-12-30T18:00:33.121Z,10.05
2017-12-30T18:02:59.859Z,10.20
2017-12-30T18:05:26.607Z,9.43
2017-12-30T18:07:53.382Z,10.65
2017-12-30T18:10:20.155Z,11.82
2017-12-30T18:12:46.874Z,12.27
2017-12-30T18:15:13.648Z,11.35
2017-12-30T18:17:40.458Z,12.90
2017-12-30T18:20:07.193Z,10.40
2017-12-30T18:22:34.031Z,10.70
2017-12-30T18:25:00.817Z,8.25
2017-12-30T18:27:27.601Z,8.40
2017-12-30T18:29:54.365Z,7.75
2017-12-30T18:32:21.110Z,7.12
2017-12-30T18:34:47.835Z,7.40
2017-12-30T18:37:14.580Z,7.12
2017-12-30T18:39:41.315Z,7.12
2017-12-30T18:42:08.062Z,7.62
2017-12-30T18:44:34.811Z,6.62
2017-12-30T18:47:01.567Z,8.50
2017-12-30T18:49:28.333Z,8.07
2017-12-30T18:51:55.160Z,7.60
2017-12-30T18:54:21.905Z,7.40
2017-12-30T18:56:48.653Z,7.03
2017-12-30T18:59:16.482Z,7.62
2017-12-30T19:01:43.214Z,6.83
2017-12-30T19:04:09.965Z,7.30
2017-12-30T19:06:36.754Z,5.53
2017-12-30T19:09:03.552Z,8.18
2017-12-30T19:11:30.353Z,11.05
2017-12-30T19:13:57.433Z,10.30
2017-12-30T19:16:24.197Z,10.40
2017-12-30T19:18:50.928Z,10.33
2017-12-30T19:21:17.665Z,7.60
2017-12-30T19:23:44.398Z,7.60
2017-12-30T19:26:11.143Z,7.07
2017-12-30T19:28:37.911Z,6.40
2017-12-30T19:31:04.633Z,6.32
2017-12-30T19:33:31.395Z,6.32
2017-12-30T19:35:58.161Z,7.10
2017-12-30T19:38:24.909Z,7.03
2017-12-30T19:40:51.658Z,7.53
2017-12-30T19:43:18.402Z,6.95
2017-12-30T19:45:45.155Z,7.82
2017-12-30T19:48:11.876Z,8.23
2017-12-30T19:50:38.628Z,9.48
2017-12-30T19:53:05.457Z,9.65
2017-12-30T19:55:32.214Z,9.07
2017-12-30T19:57:58.946Z,9.60
2017-12-30T20:00:25.711Z,7.80
2017-12-30T20:02:52.947Z,8.20
2017-12-30T20:05:19.667Z,9.70
2017-12-30T20:07:46.408Z,10.05
2017-12-30T20:10:13.174Z,16.10
2017-12-30T20:12:39.944Z,11.45
2017-12-30T20:15:06.674Z,12.63
2017-12-30T20:17:33.415Z,10.55
2017-12-30T20:20:00.184Z,10.30
2017-12-30T20:22:26.926Z,10.27
2017-12-30T20:24:53.650Z,10.10
2017-12-30T20:27:20.382Z,11.55
2017-12-30T20:29:47.110Z,9.43
2017-12-30T20:32:13.838Z,9.75
2017-12-30T20:34:40.594Z,9.60
2017-12-30T20:37:07.329Z,9.50
2017-12-30T20:39:34.075Z,9.05
2017-12-30T20:42:01.663Z,9.00
2017-12-30T20:44:28.412Z,10.23
2017-12-30T20:46:55.175Z,10.18
2017-12-30T20:49:21.998Z,9.20
2017-12-30T20:51:48.737Z,10.85
2017-12-30T20:54:15.470Z,9.65
2017-12-30T20:56:42.245Z,10.55
2017-12-30T20:59:08.979Z,13.27
2017-12-30T21:01:35.698Z,13.40
2017-12-30T21:04:02.452Z,13.05
2017-12-30T21:06:29.187Z,15.43
2017-12-30T21:08:56.670Z,15.23
2017-12-30T21:11:23.425Z,14.82
2017-12-30T21:13:50.172Z,15.77
2017-12-30T21:16:16.909Z,14.70
2017-12-30T21:18:44.081Z,12.52
2017-12-30T21:21:10.818Z,12.60
2017-12-30T21:23:37.543Z,13.07
2017-12-30T21:26:04.309Z,13.75
2017-12-30T21:28:31.051Z,14.40
2017-12-30T21:30:57.787Z,13.70
2017-12-30T21:33:24.553Z,13.07
2017-12-30T21:35:51.313Z,12.82
2017-12-30T21:38:18.048Z,13.80
2017-12-30T21:40:44.836Z,11.23
2017-12-30T21:43:11.642Z,12.60
2017-12-30T21:45:38.424Z,11.40
2017-12-30T21:48:05.215Z,11.73
2017-12-30T21:50:31.952Z,9.48
2017-12-30T21:52:58.720Z,11.63
2017-12-30T21:55:25.481Z,11.95
2017-12-30T21:57:52.227Z,10.07
2017-12-30T22:00:18.979Z,12.93
2017-12-30T22:02:45.796Z,10.55
2017-12-30T22:05:12.559Z,9.57
2017-12-30T22:07:39.294Z,9.45
2017-12-30T22:10:06.058Z,9.63
2017-12-30T22:12:32.811Z,9.43
2017-12-30T22:14:59.621Z,9.90
2017-12-30T22:17:26.401Z,9.98
2017-12-30T22:19:53.139Z,9.95
2017-12-30T22:22:19.884Z,11.05
2017-12-30T22:24:46.653Z,11.65
2017-12-30T22:27:13.394Z,11.85
2017-12-30T22:29:40.130Z,11.45
2017-12-30T22:32:06.869Z,12.13
2017-12-30T22:34:33.604Z,11.40
2017-12-30T22:37:00.339Z,11.60
2017-12-30T22:39:27.081Z,10.57
2017-12-30T22:41:53.816Z,12.90
2017-12-30T22:44:20.552Z,11.30
2017-12-30T22:46:47.298Z,11.15
2017-12-30T22:49:14.020Z,12.27
2017-12-30T22:51:40.794Z,12.63
2017-12-30T22:54:07.523Z,7.72
2017-12-30T22:56:34.257Z,7.55
2017-12-30T22:59:00.993Z,7.95
2017-12-30T23:01:27.770Z,8.18
2017-12-30T23:03:54.534Z,8.50
2017-12-30T23:06:21.291Z,7.68
2017-12-30T23:08:48.063Z,8.57
2017-12-30T23:11:14.812Z,9.27
2017-12-30T23:13:41.536Z,8.57
2017-12-30T23:16:08.290Z,9.10
2017-12-30T23:18:35.023Z,9.35
2017-12-30T23:21:01.776Z,9.10
2017-12-30T23:23:28.525Z,7.97
2017-12-30T23:25:55.286Z,7.80
2017-12-30T23:28:22.022Z,8.75
2017-12-30T23:30:48.756Z,9.07
2017-12-30T23:33:15.490Z,9.73
2017-12-30T23:35:42.219Z,8.77
2017-12-30T23:38:08.957Z,9.18
2017-12-30T23:40:35.701Z,8.90
2017-12-30T23:43:02.425Z,9.90
2017-12-30T23:45:29.192Z,10.15
2017-12-30T23:47:55.942Z,8.82
2017-12-30T23:50:22.671Z,8.40
2017-12-30T23:52:49.412Z,9.02
2017-12-30T23:55:16.155Z,8.48
2017-12-30T23:57:42.885Z,9.43
